createdAt,value
2022-09-20T00:01:28.181Z,10.03
2022-09-20T00:03:58.348Z,10.04
2022-09-20T00:06:27.354Z,9.99
2022-09-20T00:08:54.362Z,10.00
2022-09-20T00:11:23.277Z,10.00
2022-09-20T00:13:52.974Z,9.94
2022-09-20T00:16:25.382Z,9.85
2022-09-20T00:18:54.131Z,9.88
2022-09-20T00:21:24.486Z,9.86
2022-09-20T00:23:52.505Z,9.90
2022-09-20T00:26:20.028Z,9.80
2022-09-20T00:28:47.183Z,9.86
2022-09-20T00:31:14.282Z,9.85
2022-09-20T00:33:59.399Z,9.82
2022-09-20T00:36:27.394Z,9.77
2022-09-20T00:38:58.017Z,9.78
2022-09-20T00:41:24.633Z,9.75
2022-09-20T00:43:51.687Z,9.75
2022-09-20T00:46:40.735Z,9.72
2022-09-20T00:49:20.629Z,9.71
2022-09-20T00:51:55.488Z,9.70
2022-09-20T00:54:25.190Z,9.68
2022-09-20T00:56:52.425Z,9.58
2022-09-20T00:59:23.230Z,9.62
2022-09-20T01:02:00.632Z,9.63
2022-09-20T01:04:28.555Z,9.59
2022-09-20T01:07:00.852Z,9.54
2022-09-20T01:09:27.304Z,9.56
2022-09-20T01:11:56.442Z,9.55
2022-09-20T01:14:24.705Z,9.52
2022-09-20T01:16:55.063Z,9.43
2022-09-20T01:19:32.996Z,9.48
2022-09-20T01:22:04.299Z,9.46
2022-09-20T01:24:48.552Z,9.47
2022-09-20T01:27:21.031Z,9.46
2022-09-20T01:29:56.441Z,9.46
2022-09-20T01:32:30.905Z,9.41
2022-09-20T01:35:00.333Z,9.41
2022-09-20T01:37:32.144Z,9.40
2022-09-20T01:40:21.910Z,9.32
2022-09-20T01:43:02.817Z,9.37
2022-09-20T01:45:31.913Z,9.35
2022-09-20T01:48:13.418Z,9.33
2022-09-20T01:50:58.589Z,9.29
2022-09-20T01:54:15.783Z,9.28
2022-09-20T01:57:13.033Z,9.25
2022-09-20T02:00:06.039Z,9.22
2022-09-20T02:02:57.553Z,9.18
2022-09-20T02:05:46.943Z,9.10
2022-09-20T02:08:49.548Z,9.13
2022-09-20T02:11:18.840Z,9.09
2022-09-20T02:14:04.367Z,9.06
2022-09-20T02:16:54.143Z,9.03
2022-09-20T02:20:01.883Z,8.97
2022-09-20T02:23:02.458Z,8.93
2022-09-20T02:25:43.970Z,8.87
2022-09-20T02:28:13.321Z,8.86
2022-09-20T02:31:02.160Z,8.82
2022-09-20T02:33:40.792Z,8.80
2022-09-20T02:36:27.215Z,8.77
2022-09-20T02:38:59.634Z,8.72
2022-09-20T02:41:52.832Z,8.72
2022-09-20T02:44:37.946Z,8.66
2022-09-20T02:47:07.464Z,8.63
2022-09-20T02:49:58.845Z,8.60
2022-09-20T02:52:32.627Z,8.57
2022-09-20T02:54:58.996Z,8.54
2022-09-20T02:58:05.724Z,8.53
2022-09-20T03:01:04.014Z,8.47
2022-09-20T03:03:52.128Z,8.44
2022-09-20T03:06:34.070Z,8.39
2022-09-20T03:09:18.417Z,8.37
2022-09-20T03:12:11.386Z,8.38
2022-09-20T03:14:45.517Z,8.32
2022-09-20T03:17:43.678Z,8.34
2022-09-20T03:20:47.556Z,8.27
2022-09-20T03:23:27.807Z,8.24
2022-09-20T03:26:15.555Z,8.21
2022-09-20T03:28:57.337Z,8.20
2022-09-20T03:31:44.608Z,8.22
2022-09-20T03:34:13.848Z,8.16
2022-09-20T03:37:17.872Z,8.16
2022-09-20T03:40:09.694Z,8.14
2022-09-20T03:42:44.637Z,8.08
2022-09-20T03:45:20.125Z,8.09
2022-09-20T03:48:01.742Z,8.08
2022-09-20T03:50:47.000Z,8.02
2022-09-20T03:53:43.986Z,8.00
2022-09-20T03:56:29.940Z,7.99
2022-09-20T03:59:31.780Z,7.95
2022-09-20T04:02:17.084Z,7.94
2022-09-20T04:05:00.962Z,7.91
2022-09-20T04:07:58.167Z,7.86
2022-09-20T04:10:44.519Z,7.82
2022-09-20T04:13:32.847Z,7.83
2022-09-20T04:16:10.240Z,7.80
2022-09-20T04:18:56.615Z,7.81
2022-09-20T04:21:51.392Z,7.72
2022-09-20T04:24:29.885Z,7.73
2022-09-20T04:27:02.863Z,7.65
2022-09-20T04:29:41.704Z,7.72
2022-09-20T04:32:30.130Z,7.69
2022-09-20T04:35:41.931Z,7.68
2022-09-20T04:38:12.686Z,7.56
2022-09-20T04:41:28.313Z,7.58
2022-09-20T04:44:13.064Z,7.59
2022-09-20T04:47:18.413Z,7.55
2022-09-20T04:50:18.088Z,7.50
2022-09-20T04:53:03.224Z,7.49
2022-09-20T04:55:48.487Z,7.48
2022-09-20T04:58:50.597Z,7.47
2022-09-20T05:02:03.409Z,7.40
2022-09-20T05:04:40.631Z,7.40
2022-09-20T05:07:31.752Z,7.40
2022-09-20T05:10:10.387Z,7.37
2022-09-20T05:12:46.564Z,7.37
2022-09-20T05:15:37.029Z,7.36
2022-09-20T05:18:46.621Z,7.33
2022-09-20T05:21:38.002Z,7.28
2022-09-20T05:24:20.222Z,7.28
2022-09-20T05:26:55.598Z,7.29
2022-09-20T05:29:35.113Z,7.27
2022-09-20T05:32:19.616Z,7.26
2022-09-20T05:35:19.188Z,7.24
2022-09-20T05:38:05.603Z,7.23
2022-09-20T05:41:07.552Z,7.22
2022-09-20T05:43:39.722Z,7.15
2022-09-20T05:47:00.577Z,7.22
2022-09-20T05:49:39.563Z,7.21
2022-09-20T05:52:19.342Z,7.19
2022-09-20T05:55:27.233Z,7.23
2022-09-20T05:58:08.229Z,7.22
2022-09-20T06:00:43.941Z,7.21
2022-09-20T06:03:28.504Z,7.24
2022-09-20T06:06:18.996Z,7.26
2022-09-20T06:09:15.640Z,7.26
2022-09-20T06:12:01.688Z,7.27
2022-09-20T06:14:46.521Z,7.28
2022-09-20T06:17:19.136Z,7.32
2022-09-20T06:20:10.391Z,7.35
2022-09-20T06:22:42.829Z,7.36
2022-09-20T06:25:09.205Z,7.41
2022-09-20T06:27:39.647Z,7.41
2022-09-20T06:30:14.773Z,7.47
2022-09-20T06:33:18.255Z,7.47
2022-09-20T06:36:24.957Z,7.47
2022-09-20T06:39:44.042Z,7.51
2022-09-20T06:42:10.614Z,10.67
2022-09-20T06:44:41.269Z,11.77
2022-09-20T06:47:10.662Z,9.64
2022-09-20T06:49:37.265Z,8.96
2022-09-20T06:52:08.285Z,8.64
2022-09-20T06:54:34.745Z,8.45
2022-09-20T06:57:04.609Z,8.41
2022-09-20T06:59:31.996Z,8.24
2022-09-20T07:01:58.721Z,8.30
2022-09-20T07:04:26.651Z,8.37
2022-09-20T07:07:00.089Z,8.40
2022-09-20T07:09:26.530Z,8.35
2022-09-20T07:11:52.920Z,8.33
2022-09-20T07:14:19.368Z,8.40
2022-09-20T07:16:45.846Z,8.45
2022-09-20T07:19:12.349Z,8.46
2022-09-20T07:21:38.767Z,8.45
2022-09-20T07:24:05.344Z,8.52
2022-09-20T07:26:31.864Z,8.52
2022-09-20T07:28:59.809Z,8.54
2022-09-20T07:31:27.963Z,8.57
2022-09-20T07:33:54.569Z,8.48
2022-09-20T07:36:21.445Z,9.25
2022-09-20T07:38:53.061Z,8.93
2022-09-20T07:41:20.588Z,8.79
2022-09-20T07:43:47.108Z,8.57
2022-09-20T07:46:13.777Z,8.73
2022-09-20T07:48:41.271Z,8.69
2022-09-20T07:51:11.334Z,8.76
2022-09-20T07:53:38.716Z,8.73
2022-09-20T07:56:12.848Z,8.70
2022-09-20T07:58:39.893Z,8.80
2022-09-20T08:01:09.726Z,8.82
2022-09-20T08:03:36.919Z,8.80
2022-09-20T08:06:09.321Z,8.83
2022-09-20T08:08:37.452Z,8.90
2022-09-20T08:11:06.448Z,8.97
2022-09-20T08:14:09.611Z,8.97
2022-09-20T08:16:54.944Z,8.87
2022-09-20T08:19:22.916Z,8.77
2022-09-20T08:21:51.250Z,8.90
2022-09-20T08:24:17.777Z,8.80
2022-09-20T08:26:44.919Z,8.91
2022-09-20T08:29:12.136Z,8.78
2022-09-20T08:31:42.491Z,8.91
2022-09-20T08:34:11.697Z,8.90
2022-09-20T08:36:45.411Z,8.89
2022-09-20T08:42:12.860Z,9.05
2022-09-20T08:45:05.320Z,9.05
2022-09-20T08:47:35.876Z,9.04
2022-09-20T08:50:09.989Z,9.09
2022-09-20T08:52:40.686Z,9.13
2022-09-20T08:55:16.987Z,9.11
2022-09-20T08:57:44.785Z,9.00
2022-09-20T09:00:18.426Z,9.14
2022-09-20T09:02:45.886Z,9.15
2022-09-20T09:05:33.633Z,9.26
2022-09-20T09:08:04.719Z,9.25
2022-09-20T09:10:42.635Z,9.31
2022-09-20T09:13:18.324Z,9.32
2022-09-20T09:15:49.066Z,9.22
2022-09-20T09:18:15.441Z,9.21
2022-09-20T09:20:46.765Z,9.30
2022-09-20T09:23:25.670Z,9.37
2022-09-20T09:25:54.040Z,9.41
2022-09-20T09:28:26.750Z,9.38
2022-09-20T09:30:54.171Z,9.12
2022-09-20T09:33:31.704Z,9.32
2022-09-20T09:36:04.082Z,9.47
2022-09-20T09:38:49.305Z,9.35
2022-09-20T09:41:20.348Z,9.50
2022-09-20T09:43:59.383Z,9.52
2022-09-20T09:46:31.016Z,9.50
2022-09-20T09:49:24.803Z,9.60
2022-09-20T09:51:57.208Z,9.62
2022-09-20T09:54:25.575Z,9.63
2022-09-20T09:57:01.836Z,9.40
2022-09-20T09:59:49.217Z,9.47
2022-09-20T10:02:36.804Z,9.55
2022-09-20T10:05:24.740Z,9.61
2022-09-20T10:08:10.732Z,9.73
2022-09-20T10:11:00.897Z,9.67
2022-09-20T10:13:47.547Z,9.67
2022-09-20T10:16:32.975Z,9.78
2022-09-20T10:19:22.580Z,9.66
2022-09-20T10:22:08.540Z,9.75
2022-09-20T10:25:00.589Z,9.78
2022-09-20T10:27:36.127Z,9.95
2022-09-20T10:30:22.107Z,10.00
2022-09-20T10:33:06.668Z,10.08
2022-09-20T10:36:12.244Z,10.14
2022-09-20T10:38:50.093Z,10.20
2022-09-20T10:41:58.397Z,10.19
2022-09-20T10:44:33.863Z,10.07
2022-09-20T10:47:20.420Z,10.19
2022-09-20T10:50:05.388Z,10.14
2022-09-20T10:52:50.481Z,10.24
2022-09-20T10:55:47.257Z,10.28
2022-09-20T10:58:52.427Z,10.45
2022-09-20T11:01:31.656Z,10.31
2022-09-20T11:04:17.137Z,10.52
2022-09-20T11:06:58.767Z,10.47
2022-09-20T11:09:31.202Z,10.54
2022-09-20T11:12:27.075Z,10.61
2022-09-20T11:14:58.442Z,10.55
2022-09-20T11:17:35.976Z,10.58
2022-09-20T11:20:17.644Z,10.62
2022-09-20T11:22:48.914Z,10.62
2022-09-20T11:25:22.420Z,10.31
2022-09-20T11:28:04.627Z,10.48
2022-09-20T11:30:34.884Z,10.63
2022-09-20T11:33:28.781Z,10.75
2022-09-20T11:35:59.252Z,10.73
2022-09-20T11:38:53.437Z,10.79
2022-09-20T11:41:26.181Z,10.72
2022-09-20T11:43:55.541Z,10.82
2022-09-20T11:46:26.777Z,10.82
2022-09-20T11:49:04.499Z,10.88
2022-09-20T11:51:54.067Z,10.77
2022-09-20T11:54:32.608Z,10.69
2022-09-20T11:57:00.141Z,10.81
2022-09-20T11:59:37.600Z,10.90
2022-09-20T12:02:17.816Z,10.97
2022-09-20T12:04:49.484Z,11.07
2022-09-20T12:07:18.930Z,11.18
2022-09-20T12:09:53.790Z,11.24
2022-09-20T12:12:36.065Z,11.28
2022-09-20T12:15:06.913Z,11.13
2022-09-20T12:17:45.591Z,11.31
2022-09-20T12:20:42.346Z,11.38
2022-09-20T12:23:42.414Z,11.28
2022-09-20T12:26:13.288Z,11.24
2022-09-20T12:28:42.412Z,11.25
2022-09-20T12:31:32.113Z,11.47
2022-09-20T12:34:09.993Z,11.33
2022-09-20T12:36:44.628Z,11.24
2022-09-20T12:39:11.068Z,11.57
2022-09-20T12:41:50.325Z,11.59
2022-09-20T12:44:24.639Z,11.53
2022-09-20T12:46:56.564Z,11.48
2022-09-20T12:50:04.657Z,11.61
2022-09-20T12:52:56.115Z,11.83
2022-09-20T12:55:29.844Z,12.14
2022-09-20T12:58:01.983Z,11.82
2022-09-20T13:00:45.214Z,11.74
2022-09-20T13:03:23.865Z,11.45
2022-09-20T13:06:12.386Z,11.61
2022-09-20T13:09:09.042Z,11.39
2022-09-20T13:11:47.652Z,11.69
2022-09-20T13:14:22.593Z,11.76
2022-09-20T13:17:04.257Z,11.84
2022-09-20T13:19:38.066Z,11.67
2022-09-20T13:22:04.429Z,11.72
2022-09-20T13:24:35.594Z,11.60
2022-09-20T13:27:06.741Z,11.79
2022-09-20T13:29:39.339Z,11.97
2022-09-20T13:32:27.969Z,11.96
2022-09-20T13:35:07.890Z,12.12
2022-09-20T13:37:35.674Z,12.09
2022-09-20T13:40:02.922Z,12.08
2022-09-20T13:42:30.033Z,12.77
2022-09-20T13:44:58.752Z,12.54
2022-09-20T13:47:31.243Z,12.47
2022-09-20T13:50:44.918Z,12.45
2022-09-20T13:53:39.504Z,12.33
2022-09-20T13:56:11.612Z,12.59
2022-09-20T13:58:38.284Z,12.70
2022-09-20T14:01:09.665Z,12.63
2022-09-20T14:03:36.480Z,12.87
2022-09-20T14:06:12.328Z,12.95
2022-09-20T14:08:51.064Z,12.83
2022-09-20T14:11:22.479Z,12.63
2022-09-20T14:13:51.512Z,12.72
2022-09-20T14:16:20.405Z,12.95
2022-09-20T14:18:48.586Z,12.68
2022-09-20T14:21:23.123Z,12.76
2022-09-20T14:23:50.963Z,12.77
2022-09-20T14:26:17.343Z,12.64
2022-09-20T14:28:44.954Z,12.41
2022-09-20T14:31:15.860Z,12.47
2022-09-20T14:33:54.275Z,12.32
2022-09-20T14:36:23.971Z,13.72
2022-09-20T14:38:54.097Z,13.55
2022-09-20T14:41:47.020Z,13.39
2022-09-20T14:44:30.796Z,13.02
2022-09-20T14:46:57.707Z,12.69
2022-09-20T14:49:24.051Z,12.93
2022-09-20T14:51:51.601Z,12.92
2022-09-20T14:54:26.938Z,12.88
2022-09-20T14:56:54.765Z,12.91
2022-09-20T14:59:26.820Z,12.60
2022-09-20T15:02:10.209Z,12.92
2022-09-20T15:04:37.940Z,12.88
2022-09-20T15:07:12.854Z,13.14
2022-09-20T15:09:39.588Z,13.23
2022-09-20T15:12:14.291Z,12.91
2022-09-20T15:14:41.448Z,13.04
2022-09-20T15:17:12.787Z,13.03
2022-09-20T15:19:39.258Z,13.02
2022-09-20T15:22:09.920Z,13.31
2022-09-20T15:24:36.516Z,13.21
2022-09-20T15:27:02.964Z,12.95
2022-09-20T15:29:29.429Z,12.92
2022-09-20T15:31:55.898Z,12.77
2022-09-20T15:34:22.522Z,13.11
2022-09-20T15:36:50.644Z,13.03
2022-09-20T15:39:17.346Z,13.01
2022-09-20T15:41:46.880Z,12.88
2022-09-20T15:44:16.736Z,12.80
2022-09-20T15:46:43.152Z,12.81
2022-09-20T15:49:12.225Z,12.95
2022-09-20T15:51:39.102Z,13.09
2022-09-20T15:54:07.537Z,13.00
2022-09-20T15:56:36.688Z,12.80
2022-09-20T15:59:11.107Z,13.05
2022-09-20T16:01:40.085Z,13.10
2022-09-20T16:04:14.131Z,12.75
2022-09-20T16:06:42.326Z,13.04
2022-09-20T16:09:09.449Z,12.91
2022-09-20T16:11:36.736Z,13.16
2022-09-20T16:14:03.419Z,13.00
2022-09-20T16:16:35.029Z,12.84
2022-09-20T16:19:17.498Z,12.76
2022-09-20T16:21:54.993Z,12.92
2022-09-20T16:24:26.149Z,12.88
2022-09-20T16:26:53.179Z,12.96
2022-09-20T16:29:22.125Z,13.03
2022-09-20T16:31:50.214Z,13.09
2022-09-20T16:34:39.102Z,12.98
2022-09-20T16:37:17.109Z,13.06
2022-09-20T16:39:44.750Z,13.06
2022-09-20T16:42:13.307Z,12.91
2022-09-20T16:44:44.376Z,12.97
2022-09-20T16:47:13.099Z,13.01
2022-09-20T16:49:39.677Z,13.02
2022-09-20T16:52:08.953Z,12.94
2022-09-20T16:54:35.756Z,12.98
2022-09-20T16:57:02.335Z,13.01
2022-09-20T16:59:28.964Z,12.96
2022-09-20T17:01:59.120Z,12.80
2022-09-20T17:04:25.782Z,12.87
2022-09-20T17:06:52.581Z,12.92
2022-09-20T17:09:19.242Z,12.83
2022-09-20T17:11:49.570Z,12.87
2022-09-20T17:14:18.630Z,12.87
2022-09-20T17:16:49.298Z,12.84
2022-09-20T17:19:18.601Z,12.82
2022-09-20T17:21:50.492Z,12.79
2022-09-20T17:24:22.028Z,12.78
2022-09-20T17:26:50.413Z,12.77
2022-09-20T17:29:18.506Z,12.75
2022-09-20T17:31:53.980Z,12.73
2022-09-20T17:34:21.976Z,12.68
2022-09-20T17:36:50.461Z,12.67
2022-09-20T17:39:17.922Z,12.77
2022-09-20T17:41:47.185Z,12.71
2022-09-20T17:44:13.944Z,12.66
2022-09-20T17:46:45.662Z,12.65
2022-09-20T17:49:14.528Z,12.63
2022-09-20T17:51:46.656Z,12.61
2022-09-20T17:54:14.244Z,12.56
2022-09-20T17:56:46.361Z,12.53
2022-09-20T17:59:16.252Z,12.51
2022-09-20T18:01:44.222Z,12.48
2022-09-20T18:04:11.400Z,12.44
2022-09-20T18:06:43.511Z,12.41
2022-09-20T18:09:18.816Z,12.38
2022-09-20T18:11:50.665Z,12.33
2022-09-20T18:14:20.352Z,12.30
2022-09-20T18:16:47.430Z,12.25
2022-09-20T18:19:16.128Z,12.20
2022-09-20T18:21:43.150Z,12.18
2022-09-20T18:24:11.210Z,12.14
2022-09-20T18:26:39.909Z,12.10
2022-09-20T18:29:12.466Z,12.09
2022-09-20T18:31:57.998Z,12.06
2022-09-20T18:34:26.833Z,12.01
2022-09-20T18:36:56.131Z,11.99
2022-09-20T18:39:27.863Z,11.96
2022-09-20T18:41:55.017Z,11.93
2022-09-20T18:44:22.772Z,11.90
2022-09-20T18:46:51.086Z,11.88
2022-09-20T18:49:17.755Z,11.86
2022-09-20T18:51:44.838Z,11.82
2022-09-20T18:54:11.872Z,11.81
2022-09-20T18:56:40.810Z,11.76
2022-09-20T18:59:16.908Z,11.73
2022-09-20T19:02:15.746Z,11.73
2022-09-20T19:05:08.524Z,11.67
2022-09-20T19:08:13.712Z,11.65
2022-09-20T19:10:43.029Z,11.61
2022-09-20T19:13:23.208Z,11.58
2022-09-20T19:16:00.405Z,11.56
2022-09-20T19:18:49.119Z,11.53
2022-09-20T19:21:31.158Z,11.51
2022-09-20T19:24:05.469Z,11.48
2022-09-20T19:26:38.612Z,11.43
2022-09-20T19:29:18.830Z,11.40
2022-09-20T19:31:47.794Z,11.39
2022-09-20T19:34:19.953Z,11.37
2022-09-20T19:37:24.250Z,11.35
2022-09-20T19:40:21.894Z,11.32
2022-09-20T19:43:00.390Z,11.27
2022-09-20T19:45:48.692Z,11.27
2022-09-20T19:48:40.849Z,11.24
2022-09-20T19:51:12.126Z,11.21
2022-09-20T19:53:39.315Z,11.19
2022-09-20T19:56:26.600Z,11.19
2022-09-20T19:58:55.058Z,11.15
2022-09-20T20:01:23.773Z,11.12
2022-09-20T20:03:51.696Z,11.10
2022-09-20T20:06:36.768Z,11.08
2022-09-20T20:09:18.604Z,11.04
2022-09-20T20:11:51.274Z,10.99
2022-09-20T20:14:20.947Z,10.99
2022-09-20T20:17:41.201Z,10.92
2022-09-20T20:20:46.276Z,10.90
2022-09-20T20:23:32.446Z,10.88
2022-09-20T20:26:21.674Z,10.87
2022-09-20T20:28:48.393Z,10.83
2022-09-20T20:31:15.314Z,10.81
2022-09-20T20:33:43.412Z,10.80
2022-09-20T20:36:11.968Z,10.78
2022-09-20T20:38:40.415Z,10.76
2022-09-20T20:41:12.249Z,10.75
2022-09-20T20:43:40.902Z,10.72
2022-09-20T20:46:10.952Z,10.71
2022-09-20T20:48:37.698Z,10.70
2022-09-20T20:51:12.542Z,10.68
2022-09-20T20:53:47.100Z,10.67
2022-09-20T20:56:28.618Z,10.64
2022-09-20T20:58:57.827Z,10.61
2022-09-20T21:01:27.782Z,10.58
2022-09-20T21:03:56.027Z,10.58
2022-09-20T21:06:25.192Z,10.56
2022-09-20T21:08:52.493Z,10.55
2022-09-20T21:11:24.292Z,10.54
2022-09-20T21:13:55.224Z,10.52
2022-09-20T21:16:24.287Z,10.50
2022-09-20T21:18:51.300Z,10.48
2022-09-20T21:21:24.533Z,10.49
2022-09-20T21:23:53.556Z,10.44
2022-09-20T21:26:21.601Z,10.46
2022-09-20T21:28:59.589Z,10.36
2022-09-20T21:31:29.310Z,10.41
2022-09-20T21:33:57.016Z,10.42
2022-09-20T21:36:29.101Z,10.39
2022-09-20T21:38:56.377Z,10.38
2022-09-20T21:41:29.389Z,10.37
2022-09-20T21:43:57.827Z,10.35
2022-09-20T21:46:30.301Z,10.33
2022-09-20T21:48:59.429Z,10.32
2022-09-20T21:51:29.834Z,10.30
2022-09-20T21:53:58.169Z,10.28
2022-09-20T21:56:27.514Z,10.26
2022-09-20T21:58:54.754Z,10.24
2022-09-20T22:01:24.125Z,10.22
2022-09-20T22:04:01.130Z,10.18
2022-09-20T22:06:36.446Z,10.18
2022-09-20T22:09:11.202Z,10.17
2022-09-20T22:11:40.910Z,10.15
2022-09-20T22:14:08.736Z,10.12
2022-09-20T22:16:38.090Z,10.10
2022-09-20T22:19:06.292Z,10.08
2022-09-20T22:21:35.799Z,10.07
2022-09-20T22:24:05.145Z,10.06
2022-09-20T22:26:34.509Z,10.06
2022-09-20T22:29:01.442Z,10.04
2022-09-20T22:31:30.503Z,10.02
2022-09-20T22:34:00.025Z,10.01
2022-09-20T22:36:33.074Z,10.00
2022-09-20T22:38:59.873Z,9.98
2022-09-20T22:41:27.712Z,9.96
2022-09-20T22:43:54.475Z,9.94
2022-09-20T22:46:28.431Z,9.93
2022-09-20T22:48:55.410Z,9.91
2022-09-20T22:51:30.963Z,9.90
2022-09-20T22:53:57.507Z,9.87
2022-09-20T22:56:29.437Z,9.85
2022-09-20T22:59:00.251Z,9.80
2022-09-20T23:01:47.202Z,9.81
2022-09-20T23:04:19.115Z,9.79
2022-09-20T23:06:48.029Z,9.76
2022-09-20T23:09:17.791Z,9.75
2022-09-20T23:11:44.838Z,9.74
2022-09-20T23:14:14.419Z,9.71
2022-09-20T23:16:41.168Z,9.70
2022-09-20T23:19:09.156Z,9.68
2022-09-20T23:21:38.355Z,9.65
2022-09-20T23:24:07.904Z,9.61
2022-09-20T23:26:36.897Z,9.60
2022-09-20T23:29:06.348Z,9.57
2022-09-20T23:31:34.668Z,9.54
2022-09-20T23:34:03.565Z,9.48
2022-09-20T23:36:32.336Z,9.48
2022-09-20T23:38:59.063Z,9.46
2022-09-20T23:41:27.323Z,9.43
2022-09-20T23:43:54.841Z,9.41
2022-09-20T23:46:22.905Z,9.36
2022-09-20T23:48:52.559Z,9.35
2022-09-20T23:51:25.461Z,9.32
2022-09-20T23:53:53.040Z,9.28
2022-09-20T23:56:21.640Z,9.26
2022-09-20T23:58:48.745Z,9.23
